SBSG

Governador Aluízio Alves International Airport

Natal, Brazil
TAF SBSG 200400Z 2006/2106 23005KT 8000 SCT017 TN24/2007Z TX31/2015Z BECMG 2011/2013 15015KT BKN017 BECMG 2016/2017 SCT030 BECMG 2022/2023 17008KT BECMG 2104/2105 23004KT RMK PEU
Issued Valid From Valid To
Jan-20 @ 04:00 UTC
(7 hours ago)
Jan-20 @ 06:00 UTC
(5 hours ago)
Jan-21 @ 06:00 UTC
(in 19 hours)
Jan-20 @ 06:00 to Jan-20 @ 11:00
TAF SBSG 200400Z 2006/2106 23005KT 8000 SCT017 TN24/2007Z TX31/2015Z
Wind Visibility Clouds
230° at 5 knots 7,998 meters
  • Scattered at 1,700' AGL
Becoming Jan-20 @ 11:00 to Jan-20 @ 16:00
BECMG 2011/2013 15015KT BKN017
Wind Visibility Clouds
150° at 15 knots 7,998 meters
  • Broken at 1,700' AGL
Becoming Jan-20 @ 16:00 to Jan-20 @ 22:00
BECMG 2016/2017 SCT030
Wind Visibility Clouds
150° at 15 knots 7,998 meters
  • Scattered at 3,000' AGL
Becoming Jan-20 @ 22:00 to Jan-21 @ 04:00
BECMG 2022/2023 17008KT
Wind Visibility Clouds
170° at 8 knots 7,998 meters
  • Scattered at 3,000' AGL
Becoming Jan-21 @ 04:00 to Jan-21 @ 06:00
BECMG 2104/2105 23004KT RMK PEU
Wind Visibility Clouds
230° at 4 knots 7,998 meters
  • Scattered at 3,000' AGL
TAF SBSG 200400Z 2006/2106 23005KT 8000 SCT017 TN24/2007Z TX31/2015Z BECMG 2011/2013 15015KT BKN017 BECMG 2016/2017 SCT030 BECMG 2022/2023 17008KT BECMG 2104/2105 23004KT RMK PEU
Issued Jan-20 @ 04:00 UTC
(7 hours ago)
Valid From Jan-20 @ 06:00 UTC
(5 hours ago)
Valid To Jan-21 @ 06:00 UTC
(in 19 hours)
Jan-20 @ 06:00 - Jan-20 @ 11:00
Wind Visibility
230° at 5 knots 7,998 meters
Clouds
  • Scattered at 1,700' AGL
Becoming Jan-20 @ 11:00 - Jan-20 @ 16:00
Wind Visibility
150° at 15 knots 7,998 meters
Clouds
  • Broken at 1,700' AGL
Becoming Jan-20 @ 16:00 - Jan-20 @ 22:00
Wind Visibility
150° at 15 knots 7,998 meters
Clouds
  • Scattered at 3,000' AGL
Becoming Jan-20 @ 22:00 - Jan-21 @ 04:00
Wind Visibility
170° at 8 knots 7,998 meters
Clouds
  • Scattered at 3,000' AGL
Becoming Jan-21 @ 04:00 - Jan-21 @ 06:00
Wind Visibility
230° at 4 knots 7,998 meters
Clouds
  • Scattered at 3,000' AGL